createdAt,value
2019-06-08T00:00:37.134Z,19.40
2019-06-08T00:03:08.696Z,19.48
2019-06-08T00:05:39.999Z,19.46
2019-06-08T00:08:11.055Z,19.39
2019-06-08T00:10:42.204Z,19.02
2019-06-08T00:13:13.434Z,18.96
2019-06-08T00:15:44.682Z,19.20
2019-06-08T00:18:17.277Z,19.20
2019-06-08T00:20:48.544Z,19.11
2019-06-08T00:23:20.082Z,19.31
2019-06-08T00:25:51.475Z,19.12
2019-06-08T00:28:22.620Z,19.19
2019-06-08T00:30:53.818Z,19.50
2019-06-08T00:33:25.095Z,19.32
2019-06-08T00:35:56.408Z,19.38
2019-06-08T00:38:27.552Z,19.20
2019-06-08T00:40:59.053Z,19.44
2019-06-08T00:43:30.187Z,19.21
2019-06-08T00:46:01.404Z,19.06
2019-06-08T00:48:32.619Z,19.44
2019-06-08T00:51:03.906Z,19.21
2019-06-08T00:53:35.155Z,19.33
2019-06-08T00:56:06.427Z,19.27
2019-06-08T00:58:37.665Z,19.15
2019-06-08T01:01:08.991Z,19.38
2019-06-08T01:03:40.218Z,19.35
2019-06-08T01:06:11.456Z,19.38
2019-06-08T01:08:42.970Z,19.26
2019-06-08T01:11:14.349Z,19.10
2019-06-08T01:13:45.446Z,19.17
2019-06-08T01:16:16.715Z,19.47
2019-06-08T01:18:47.989Z,19.16
2019-06-08T01:21:19.589Z,19.14
2019-06-08T01:23:50.818Z,19.30
2019-06-08T01:26:22.324Z,19.23
2019-06-08T01:28:54.836Z,19.29
2019-06-08T01:31:26.582Z,19.24
2019-06-08T01:33:57.950Z,19.35
2019-06-08T01:36:29.264Z,18.92
2019-06-08T01:39:00.363Z,19.11
2019-06-08T01:41:33.243Z,19.26
2019-06-08T01:44:04.597Z,19.50
2019-06-08T01:46:35.870Z,19.35
2019-06-08T01:49:07.082Z,19.15
2019-06-08T01:51:39.416Z,19.46
2019-06-08T01:54:10.717Z,19.25
2019-06-08T01:56:41.989Z,19.31
2019-06-08T01:59:13.298Z,19.27
2019-06-08T02:01:44.588Z,18.99
2019-06-08T02:04:15.769Z,19.15
2019-06-08T02:06:46.994Z,19.21
2019-06-08T02:09:18.148Z,18.91
2019-06-08T02:11:49.411Z,19.04
2019-06-08T02:14:20.541Z,19.07
2019-06-08T02:16:51.786Z,19.00
2019-06-08T02:19:23.011Z,19.10
2019-06-08T02:21:54.584Z,18.95
2019-06-08T02:24:27.200Z,18.94
2019-06-08T02:26:58.547Z,19.16
2019-06-08T02:29:29.706Z,18.83
2019-06-08T02:32:00.905Z,19.26
2019-06-08T02:34:33.372Z,18.86
2019-06-08T02:37:04.979Z,18.94
2019-06-08T02:39:38.467Z,18.83
2019-06-08T02:42:09.157Z,19.10
2019-06-08T02:44:40.764Z,18.90
2019-06-08T02:47:16.161Z,18.83
2019-06-08T02:49:45.015Z,19.04
2019-06-08T02:52:16.295Z,19.01
2019-06-08T02:54:48.575Z,18.96
2019-06-08T02:57:22.616Z,19.05
2019-06-08T02:59:55.968Z,19.02
2019-06-08T03:02:31.602Z,19.01
2019-06-08T03:05:04.913Z,18.88
2019-06-08T03:07:39.153Z,19.01
2019-06-08T03:10:11.414Z,19.10
2019-06-08T03:12:45.413Z,19.14
2019-06-08T03:15:22.252Z,19.02
2019-06-08T03:17:53.387Z,18.88
2019-06-08T03:20:24.565Z,18.86
2019-06-08T03:22:55.765Z,18.54
2019-06-08T03:25:26.908Z,18.75
2019-06-08T03:27:58.178Z,18.99
2019-06-08T03:30:29.355Z,18.97
2019-06-08T03:33:00.561Z,18.56
2019-06-08T03:35:34.913Z,18.67
2019-06-08T03:38:04.608Z,18.66
2019-06-08T03:40:35.933Z,18.70
2019-06-08T03:43:07.174Z,18.63
2019-06-08T03:45:38.345Z,18.81
2019-06-08T03:48:09.576Z,18.55
2019-06-08T03:50:42.038Z,18.59
2019-06-08T03:53:13.760Z,18.32
2019-06-08T03:55:47.165Z,18.53
2019-06-08T03:58:18.183Z,18.79
2019-06-08T04:00:49.326Z,18.53
2019-06-08T04:03:20.649Z,18.67
2019-06-08T04:05:51.773Z,18.81
2019-06-08T04:08:22.903Z,18.65
2019-06-08T04:10:53.950Z,18.85
2019-06-08T04:13:25.337Z,18.64
2019-06-08T04:15:56.432Z,18.77
2019-06-08T04:18:27.714Z,18.68
2019-06-08T04:20:58.943Z,18.61
2019-06-08T04:23:30.248Z,18.63
2019-06-08T04:26:01.405Z,18.61
2019-06-08T04:28:32.605Z,18.76
2019-06-08T04:31:03.763Z,18.62
2019-06-08T04:33:34.938Z,18.70
2019-06-08T04:36:06.184Z,18.61
2019-06-08T04:38:38.919Z,18.73
2019-06-08T04:41:10.162Z,18.72
2019-06-08T04:43:42.924Z,18.72
2019-06-08T04:46:15.362Z,18.54
2019-06-08T04:48:47.979Z,18.94
2019-06-08T04:51:19.354Z,18.95
2019-06-08T04:53:50.601Z,18.74
2019-06-08T04:56:21.767Z,18.99
2019-06-08T04:58:52.897Z,18.64
2019-06-08T05:01:24.061Z,18.73
2019-06-08T05:03:55.253Z,18.51
2019-06-08T05:06:26.385Z,18.55
2019-06-08T05:08:57.563Z,18.64
2019-06-08T05:11:28.616Z,18.51
2019-06-08T05:13:59.802Z,18.57
2019-06-08T05:16:30.898Z,18.48
2019-06-08T05:19:02.010Z,18.26
2019-06-08T05:21:33.153Z,18.48
2019-06-08T05:24:05.530Z,18.47
2019-06-08T05:26:36.730Z,18.36
2019-06-08T05:29:07.913Z,18.41
2019-06-08T05:31:39.397Z,18.42
2019-06-08T05:34:10.700Z,18.33
2019-06-08T05:36:43.294Z,18.53
2019-06-08T05:39:15.031Z,18.37
2019-06-08T05:41:46.103Z,18.26
2019-06-08T05:44:17.309Z,18.56
2019-06-08T05:46:48.419Z,18.49
2019-06-08T05:49:19.690Z,18.53
2019-06-08T05:51:50.933Z,18.43
2019-06-08T05:54:22.309Z,18.15
2019-06-08T05:56:53.382Z,18.32
2019-06-08T05:59:24.960Z,18.29
2019-06-08T06:01:56.023Z,18.08
2019-06-08T06:04:27.310Z,18.20
2019-06-08T06:06:58.390Z,18.30
2019-06-08T06:09:29.566Z,18.06
2019-06-08T06:12:00.767Z,18.09
2019-06-08T06:14:31.929Z,18.11
2019-06-08T06:17:03.183Z,18.08
2019-06-08T06:19:34.436Z,18.08
2019-06-08T06:22:05.750Z,18.26
2019-06-08T06:24:37.021Z,18.22
2019-06-08T06:27:08.250Z,18.22
2019-06-08T06:29:39.589Z,18.32
2019-06-08T06:32:11.104Z,18.55
2019-06-08T06:34:43.797Z,18.25
2019-06-08T06:37:15.347Z,18.04
2019-06-08T06:39:48.148Z,18.19
2019-06-08T06:42:19.476Z,18.47
2019-06-08T06:44:52.328Z,18.33
2019-06-08T06:47:23.699Z,18.48
2019-06-08T06:49:54.936Z,18.68
2019-06-08T06:52:26.161Z,18.46
2019-06-08T06:54:57.467Z,18.38
2019-06-08T06:57:28.556Z,18.36
2019-06-08T07:00:00.055Z,18.43
2019-06-08T07:02:31.529Z,18.78
2019-06-08T07:05:02.935Z,18.56
2019-06-08T07:07:34.076Z,18.55
2019-06-08T07:10:06.211Z,18.64
2019-06-08T07:12:37.393Z,18.45
2019-06-08T07:15:08.701Z,18.38
2019-06-08T07:17:39.800Z,18.84
2019-06-08T07:20:12.502Z,18.74
2019-06-08T07:22:43.717Z,19.07
2019-06-08T07:25:14.839Z,19.05
2019-06-08T07:27:46.440Z,19.05
2019-06-08T07:30:18.865Z,18.93
2019-06-08T07:32:50.921Z,18.86
2019-06-08T07:35:22.340Z,18.90
2019-06-08T07:37:53.741Z,19.11
2019-06-08T07:40:25.148Z,19.33
2019-06-08T07:42:56.721Z,19.25
2019-06-08T07:45:28.182Z,19.17
2019-06-08T07:48:00.619Z,19.25
2019-06-08T07:50:31.885Z,19.01
2019-06-08T07:53:03.058Z,18.93
2019-06-08T07:55:34.241Z,18.89
2019-06-08T07:58:05.530Z,18.95
2019-06-08T08:00:36.851Z,18.96
2019-06-08T08:03:08.100Z,19.09
2019-06-08T08:05:39.377Z,19.09
2019-06-08T08:08:10.589Z,18.89
2019-06-08T08:10:41.766Z,18.85
2019-06-08T08:13:13.017Z,18.84
2019-06-08T08:15:44.293Z,19.02
2019-06-08T08:18:15.565Z,19.03
2019-06-08T08:20:46.787Z,19.20
2019-06-08T08:23:18.028Z,18.88
2019-06-08T08:25:50.455Z,19.15
2019-06-08T08:28:22.821Z,18.50
2019-06-08T08:30:53.911Z,18.66
2019-06-08T08:33:27.556Z,18.56
2019-06-08T08:36:01.744Z,18.45
2019-06-08T08:38:32.255Z,18.66
2019-06-08T08:41:07.403Z,18.84
2019-06-08T08:43:37.757Z,19.14
2019-06-08T08:46:10.206Z,18.99
2019-06-08T08:48:41.376Z,19.19
2019-06-08T08:51:12.708Z,18.97
2019-06-08T08:53:43.848Z,19.38
2019-06-08T08:56:15.144Z,19.36
2019-06-08T08:58:47.813Z,19.25
2019-06-08T09:01:20.562Z,19.23
2019-06-08T09:03:55.523Z,19.23
2019-06-08T09:06:24.799Z,19.62
2019-06-08T09:09:00.799Z,19.23
2019-06-08T09:11:30.843Z,19.18
2019-06-08T09:14:06.063Z,19.49
2019-06-08T09:16:34.860Z,19.50
2019-06-08T09:19:08.294Z,19.52
2019-06-08T09:21:39.037Z,19.49
2019-06-08T09:24:10.487Z,19.65
2019-06-08T09:26:41.793Z,19.61
2019-06-08T09:29:12.858Z,19.34
2019-06-08T09:31:44.129Z,19.65
2019-06-08T09:34:15.812Z,19.55
2019-06-08T09:36:48.367Z,19.57
2019-06-08T09:39:19.755Z,19.79
2019-06-08T09:41:50.985Z,19.75
2019-06-08T09:44:22.229Z,19.52
2019-06-08T09:46:54.124Z,19.78
2019-06-08T09:49:27.991Z,19.52
2019-06-08T09:52:01.876Z,19.95
2019-06-08T09:54:32.333Z,20.18
2019-06-08T09:57:04.453Z,20.23
2019-06-08T09:59:38.515Z,20.28
2019-06-08T10:02:13.005Z,20.09
2019-06-08T10:04:43.026Z,20.24
2019-06-08T10:07:14.194Z,20.16
2019-06-08T10:09:47.426Z,20.04
2019-06-08T10:12:18.406Z,20.08
2019-06-08T10:14:50.041Z,20.34
2019-06-08T10:17:21.276Z,20.37
2019-06-08T10:19:52.484Z,20.05
2019-06-08T10:22:23.569Z,20.14
2019-06-08T10:24:55.478Z,20.12
2019-06-08T10:27:28.344Z,20.40
2019-06-08T10:30:02.852Z,20.64
2019-06-08T10:32:32.835Z,20.69
2019-06-08T10:35:07.070Z,20.66
2019-06-08T10:37:38.406Z,20.60
2019-06-08T10:40:11.416Z,20.58
2019-06-08T10:42:42.663Z,20.38
2019-06-08T10:45:15.141Z,20.30
2019-06-08T10:47:47.964Z,20.34
2019-06-08T10:50:20.559Z,20.68
2019-06-08T10:52:51.707Z,20.59
2019-06-08T10:55:23.074Z,20.55
2019-06-08T10:57:54.331Z,20.63
2019-06-08T11:00:28.136Z,20.37
2019-06-08T11:03:01.653Z,19.88
2019-06-08T11:05:32.053Z,20.27
2019-06-08T11:08:04.472Z,20.40
2019-06-08T11:10:37.412Z,20.15
2019-06-08T11:13:14.980Z,20.09
2019-06-08T11:15:42.774Z,20.43
2019-06-08T11:18:14.091Z,20.45
2019-06-08T11:20:47.792Z,20.51
2019-06-08T11:23:18.865Z,20.84
2019-06-08T11:25:51.264Z,20.47
2019-06-08T11:28:22.448Z,20.96
2019-06-08T11:30:53.672Z,20.86
2019-06-08T11:33:24.774Z,20.54
2019-06-08T11:35:58.158Z,20.86
2019-06-08T11:38:28.947Z,20.38
2019-06-08T11:41:04.001Z,20.64
2019-06-08T11:43:33.299Z,20.71
2019-06-08T11:46:04.810Z,20.56
2019-06-08T11:48:39.256Z,21.11
2019-06-08T11:51:11.673Z,20.63
2019-06-08T11:53:42.116Z,21.23
2019-06-08T11:56:13.681Z,21.09
2019-06-08T11:58:45.024Z,21.03
2019-06-08T12:01:18.495Z,20.85
2019-06-08T12:03:49.065Z,20.79
2019-06-08T12:06:23.452Z,20.61
2019-06-08T12:08:53.180Z,20.68
2019-06-08T12:11:24.383Z,20.90
2019-06-08T12:13:55.451Z,20.87
2019-06-08T12:16:28.290Z,20.70
2019-06-08T12:18:59.377Z,20.69
2019-06-08T12:21:30.466Z,21.07
2019-06-08T12:24:01.663Z,21.32
2019-06-08T12:26:32.787Z,21.45
2019-06-08T12:29:05.078Z,21.44
2019-06-08T12:31:37.819Z,21.02
2019-06-08T12:34:09.274Z,21.56
2019-06-08T12:36:40.581Z,21.10
2019-06-08T12:39:12.027Z,21.49
2019-06-08T12:41:43.314Z,21.94
2019-06-08T12:44:16.406Z,21.89
2019-06-08T12:46:48.522Z,22.33
2019-06-08T12:49:20.764Z,22.15
2019-06-08T12:51:52.175Z,21.97
2019-06-08T12:54:23.355Z,21.53
2019-06-08T12:56:54.516Z,21.55
2019-06-08T12:59:28.152Z,21.24
2019-06-08T13:01:58.781Z,21.62
2019-06-08T13:04:29.945Z,21.68
2019-06-08T13:07:01.195Z,21.52
2019-06-08T13:09:32.383Z,21.58
2019-06-08T13:12:03.686Z,21.54
2019-06-08T13:14:34.901Z,21.52
2019-06-08T13:17:08.642Z,22.01
2019-06-08T13:19:38.921Z,21.62
2019-06-08T13:22:10.771Z,21.01
2019-06-08T13:24:42.068Z,21.35
2019-06-08T13:27:14.997Z,21.00
2019-06-08T13:29:48.295Z,21.23
2019-06-08T13:32:21.662Z,21.52
2019-06-08T13:34:52.123Z,21.64
2019-06-08T13:37:23.326Z,21.94
2019-06-08T13:39:54.546Z,21.38
2019-06-08T13:42:27.852Z,21.65
2019-06-08T13:44:58.616Z,22.23
2019-06-08T13:47:29.782Z,22.07
2019-06-08T13:50:00.949Z,21.97
2019-06-08T13:52:33.165Z,22.36
2019-06-08T13:55:05.187Z,21.86
2019-06-08T13:57:37.891Z,22.16
2019-06-08T14:00:11.024Z,22.42
2019-06-08T14:02:42.441Z,22.30
2019-06-08T14:05:14.254Z,22.66
2019-06-08T14:07:47.905Z,22.22
2019-06-08T14:10:24.531Z,22.50
2019-06-08T14:12:58.667Z,22.16
2019-06-08T14:15:29.894Z,22.20
2019-06-08T14:18:02.384Z,22.34
2019-06-08T14:20:34.570Z,21.79
2019-06-08T14:23:08.719Z,22.28
2019-06-08T14:25:50.678Z,22.11
2019-06-08T14:28:11.949Z,22.28
2019-06-08T14:30:43.177Z,21.87
2019-06-08T14:33:14.406Z,21.83
2019-06-08T14:35:45.571Z,22.21
2019-06-08T14:38:19.838Z,22.05
2019-06-08T14:40:49.509Z,22.27
2019-06-08T14:43:21.289Z,22.70
2019-06-08T14:45:52.662Z,22.01
2019-06-08T14:48:27.079Z,21.99
2019-06-08T14:50:58.633Z,22.32
2019-06-08T14:53:30.722Z,22.32
2019-06-08T14:56:08.445Z,22.63
2019-06-08T14:58:35.173Z,22.54
2019-06-08T15:01:07.867Z,22.84
2019-06-08T15:03:39.184Z,22.82
2019-06-08T15:06:10.392Z,22.52
2019-06-08T15:08:41.572Z,22.59
2019-06-08T15:11:12.721Z,22.33
2019-06-08T15:13:43.870Z,22.27
2019-06-08T15:16:14.972Z,22.50
2019-06-08T15:18:46.151Z,22.42
2019-06-08T15:21:20.464Z,22.48
2019-06-08T15:23:50.152Z,22.27
2019-06-08T15:26:29.880Z,22.48
2019-06-08T15:28:54.463Z,22.77
2019-06-08T15:31:28.200Z,22.26
2019-06-08T15:34:01.381Z,21.94
2019-06-08T15:36:32.572Z,22.16
2019-06-08T15:39:07.698Z,22.29
2019-06-08T15:41:38.488Z,22.37
2019-06-08T15:44:09.656Z,22.34
2019-06-08T15:46:41.118Z,22.55
2019-06-08T15:49:12.362Z,22.29
2019-06-08T15:51:44.532Z,22.20
2019-06-08T15:54:15.744Z,22.47
2019-06-08T15:56:51.342Z,22.66
2019-06-08T15:59:19.898Z,22.66
2019-06-08T16:01:52.067Z,22.63
2019-06-08T16:04:23.477Z,22.55
2019-06-08T16:06:54.752Z,22.68
2019-06-08T16:09:26.111Z,22.36
2019-06-08T16:11:59.534Z,22.40
2019-06-08T16:14:31.027Z,22.60
2019-06-08T16:17:02.185Z,22.24
2019-06-08T16:19:33.711Z,22.48
2019-06-08T16:22:05.274Z,22.43
2019-06-08T16:24:36.401Z,22.51
2019-06-08T16:27:07.608Z,22.42
2019-06-08T16:29:39.291Z,22.39
2019-06-08T16:32:10.853Z,22.36
2019-06-08T16:34:42.196Z,22.32
2019-06-08T16:37:13.438Z,22.66
2019-06-08T16:39:44.628Z,22.20
2019-06-08T16:42:15.864Z,22.13
2019-06-08T16:44:46.964Z,22.11
2019-06-08T16:47:18.033Z,22.21
2019-06-08T16:49:49.160Z,22.38
2019-06-08T16:52:20.314Z,22.46
2019-06-08T16:54:51.471Z,22.36
2019-06-08T16:57:22.785Z,22.34
2019-06-08T16:59:53.927Z,22.43
2019-06-08T17:02:25.152Z,22.29
2019-06-08T17:04:57.195Z,22.25
2019-06-08T17:07:29.298Z,22.27
2019-06-08T17:10:00.448Z,22.31
2019-06-08T17:12:32.785Z,22.05
2019-06-08T17:15:04.192Z,22.03
2019-06-08T17:17:36.497Z,22.24
2019-06-08T17:20:09.111Z,22.02
2019-06-08T17:22:40.880Z,21.82
2019-06-08T17:25:12.723Z,21.91
2019-06-08T17:27:43.952Z,21.93
2019-06-08T17:30:15.686Z,21.81
2019-06-08T17:32:46.988Z,22.00
2019-06-08T17:35:18.235Z,22.15
2019-06-08T17:37:49.372Z,21.84
2019-06-08T17:40:20.919Z,21.88
2019-06-08T17:42:52.029Z,22.07
2019-06-08T17:45:23.339Z,21.98
2019-06-08T17:47:54.644Z,22.16
2019-06-08T17:50:26.939Z,21.98
2019-06-08T17:52:58.036Z,21.93
2019-06-08T17:55:29.317Z,22.00
2019-06-08T17:58:00.534Z,21.72
2019-06-08T18:00:33.132Z,21.81
2019-06-08T18:03:04.537Z,21.50
2019-06-08T18:05:38.644Z,21.71
2019-06-08T18:08:09.433Z,21.52
2019-06-08T18:10:41.802Z,21.69
2019-06-08T18:13:13.468Z,21.65
2019-06-08T18:15:45.029Z,21.68
2019-06-08T18:18:17.634Z,21.49
2019-06-08T18:20:51.967Z,21.57
2019-06-08T18:23:22.084Z,21.42
2019-06-08T18:25:53.376Z,21.49
2019-06-08T18:28:24.640Z,21.48
2019-06-08T18:30:58.044Z,21.56
2019-06-08T18:33:28.757Z,21.55
2019-06-08T18:35:59.914Z,21.44
2019-06-08T18:38:31.079Z,21.43
2019-06-08T18:41:02.303Z,21.37
2019-06-08T18:43:33.458Z,21.24
2019-06-08T18:46:07.086Z,21.19
2019-06-08T18:48:41.664Z,21.22
2019-06-08T18:51:11.975Z,20.93
2019-06-08T18:54:01.868Z,20.95
2019-06-08T18:56:18.253Z,21.01
2019-06-08T18:58:53.485Z,20.98
2019-06-08T19:01:23.753Z,20.85
2019-06-08T19:03:54.776Z,20.71
2019-06-08T19:06:27.896Z,20.78
2019-06-08T19:08:59.678Z,20.68
2019-06-08T19:11:30.875Z,20.55
2019-06-08T19:14:03.134Z,20.66
2019-06-08T19:16:34.340Z,20.54
2019-06-08T19:19:07.448Z,20.71
2019-06-08T19:21:39.244Z,20.47
2019-06-08T19:24:10.440Z,20.34
2019-06-08T19:26:43.159Z,20.27
2019-06-08T19:29:14.507Z,20.20
2019-06-08T19:31:49.250Z,20.26
2019-06-08T19:34:18.503Z,20.08
2019-06-08T19:36:54.174Z,20.09
2019-06-08T19:39:22.451Z,19.89
2019-06-08T19:41:53.538Z,19.99
2019-06-08T19:44:24.687Z,19.86
2019-06-08T19:46:57.491Z,19.81
2019-06-08T19:49:28.871Z,19.91
2019-06-08T19:52:00.249Z,19.93
2019-06-08T19:54:31.565Z,19.84
2019-06-08T19:57:02.670Z,19.73
2019-06-08T19:59:33.865Z,19.53
2019-06-08T20:02:05.135Z,19.55
2019-06-08T20:04:38.479Z,19.69
2019-06-08T20:07:09.092Z,19.66
2019-06-08T20:09:41.091Z,19.58
2019-06-08T20:12:12.357Z,19.50
2019-06-08T20:14:43.743Z,19.63
2019-06-08T20:17:17.197Z,19.43
2019-06-08T20:19:49.498Z,19.48
2019-06-08T20:22:20.590Z,19.60
2019-06-08T20:24:55.747Z,19.43
2019-06-08T20:27:27.547Z,19.35
2019-06-08T20:29:58.369Z,19.28
2019-06-08T20:32:30.796Z,19.43
2019-06-08T20:35:02.022Z,19.36
2019-06-08T20:37:33.502Z,19.30
2019-06-08T20:40:13.301Z,19.16
2019-06-08T20:42:38.098Z,19.20
2019-06-08T20:45:10.043Z,19.10
2019-06-08T20:47:42.393Z,18.97
2019-06-08T20:50:13.955Z,18.79
2019-06-08T20:52:45.042Z,18.91
2019-06-08T20:55:17.498Z,18.72
2019-06-08T20:57:49.770Z,18.81
2019-06-08T21:00:21.930Z,18.93
2019-06-08T21:02:54.626Z,18.82
2019-06-08T21:05:27.810Z,18.77
2019-06-08T21:07:59.258Z,18.68
2019-06-08T21:10:30.443Z,18.63
2019-06-08T21:13:01.623Z,18.66
2019-06-08T21:15:32.793Z,18.76
2019-06-08T21:18:04.278Z,18.64
2019-06-08T21:20:37.615Z,18.50
2019-06-08T21:23:08.412Z,18.65
2019-06-08T21:25:39.709Z,18.32
2019-06-08T21:28:10.997Z,18.41
2019-06-08T21:30:42.134Z,18.43
2019-06-08T21:33:13.349Z,18.30
2019-06-08T21:35:44.490Z,18.38
2019-06-08T21:38:23.451Z,18.40
2019-06-08T21:40:50.985Z,18.48
2019-06-08T21:43:21.246Z,18.36
2019-06-08T21:45:53.508Z,18.51
2019-06-08T21:48:27.388Z,18.48
2019-06-08T21:51:01.431Z,18.43
2019-06-08T21:53:31.738Z,18.33
2019-06-08T21:56:03.084Z,18.59
2019-06-08T21:58:34.653Z,18.30
2019-06-08T22:01:07.575Z,18.22
2019-06-08T22:03:40.010Z,17.87
2019-06-08T22:06:11.242Z,17.85
2019-06-08T22:08:42.433Z,17.69
2019-06-08T22:11:13.734Z,17.70
2019-06-08T22:13:44.862Z,17.81
2019-06-08T22:16:16.012Z,17.75
2019-06-08T22:18:47.590Z,17.77
2019-06-08T22:21:18.832Z,17.83
2019-06-08T22:23:51.022Z,17.80
2019-06-08T22:26:22.862Z,17.73
2019-06-08T22:28:55.365Z,17.82
2019-06-08T22:31:27.702Z,17.88
2019-06-08T22:34:00.781Z,17.97
2019-06-08T22:36:31.892Z,18.02
2019-06-08T22:39:03.807Z,18.06
2019-06-08T22:41:37.413Z,18.08
2019-06-08T22:44:08.733Z,17.95
2019-06-08T22:46:39.946Z,17.89
2019-06-08T22:49:11.123Z,17.94
2019-06-08T22:51:42.323Z,17.86
2019-06-08T22:54:13.507Z,18.21
2019-06-08T22:56:44.659Z,18.22
2019-06-08T22:59:17.501Z,18.15
2019-06-08T23:01:48.737Z,17.98
2019-06-08T23:04:20.443Z,18.03
2019-06-08T23:06:51.761Z,17.85
2019-06-08T23:09:22.931Z,17.98
2019-06-08T23:11:55.254Z,17.76
2019-06-08T23:14:28.612Z,17.83
2019-06-08T23:17:02.257Z,17.79
2019-06-08T23:19:32.876Z,17.80
2019-06-08T23:22:04.116Z,17.60
2019-06-08T23:24:35.367Z,17.69
2019-06-08T23:27:06.602Z,17.37
2019-06-08T23:29:38.283Z,17.19
2019-06-08T23:32:11.582Z,17.34
2019-06-08T23:34:42.300Z,17.33
2019-06-08T23:37:13.479Z,17.13
2019-06-08T23:39:46.987Z,17.09
2019-06-08T23:42:17.962Z,17.09
2019-06-08T23:44:49.376Z,17.23
2019-06-08T23:47:20.539Z,17.27
2019-06-08T23:49:51.625Z,17.30
2019-06-08T23:52:22.838Z,17.29
2019-06-08T23:54:53.982Z,17.28
2019-06-08T23:57:27.164Z,17.23
2019-06-08T23:59:59.510Z,17.22
